sensor_id;sensor_type;location;lat;lon;timestamp;P1;durP1;ratioP1;P2;durP2;ratioP2
9304;SDS011;4690;52.422;13.486;2023-06-19T00:04:54;10.93;;;10.07;;
9304;SDS011;4690;52.422;13.486;2023-06-19T00:07:19;11.48;;;10.57;;
9304;SDS011;4690;52.422;13.486;2023-06-19T00:09:47;10.25;;;9.45;;
9304;SDS011;4690;52.422;13.486;2023-06-19T00:12:12;11.68;;;10.77;;
9304;SDS011;4690;52.422;13.486;2023-06-19T00:14:38;10.82;;;10.02;;
9304;SDS011;4690;52.422;13.486;2023-06-19T00:17:04;11.73;;;10.70;;
9304;SDS011;4690;52.422;13.486;2023-06-19T00:19:30;10.60;;;9.77;;
9304;SDS011;4690;52.422;13.486;2023-06-19T00:22:01;10.43;;;9.63;;
9304;SDS011;4690;52.422;13.486;2023-06-19T00:24:28;11.30;;;10.40;;
9304;SDS011;4690;52.422;13.486;2023-06-19T00:26:54;11.00;;;9.90;;
9304;SDS011;4690;52.422;13.486;2023-06-19T00:29:20;11.55;;;10.65;;
9304;SDS011;4690;52.422;13.486;2023-06-19T00:31:46;11.60;;;10.60;;
9304;SDS011;4690;52.422;13.486;2023-06-19T00:34:12;11.13;;;10.32;;
9304;SDS011;4690;52.422;13.486;2023-06-19T00:36:38;11.43;;;10.52;;
9304;SDS011;4690;52.422;13.486;2023-06-19T00:39:05;11.13;;;10.32;;
9304;SDS011;4690;52.422;13.486;2023-06-19T00:41:33;10.35;;;9.55;;
9304;SDS011;4690;52.422;13.486;2023-06-19T00:44:00;10.63;;;9.82;;
9304;SDS011;4690;52.422;13.486;2023-06-19T00:46:26;10.93;;;10.05;;
9304;SDS011;4690;52.422;13.486;2023-06-19T00:48:52;11.20;;;10.40;;
9304;SDS011;4690;52.422;13.486;2023-06-19T00:51:18;12.10;;;11.10;;
9304;SDS011;4690;52.422;13.486;2023-06-19T00:53:43;11.73;;;10.82;;
9304;SDS011;4690;52.422;13.486;2023-06-19T00:56:09;11.85;;;10.88;;
9304;SDS011;4690;52.422;13.486;2023-06-19T00:58:35;11.90;;;11.00;;
9304;SDS011;4690;52.422;13.486;2023-06-19T01:01:01;12.00;;;11.07;;
9304;SDS011;4690;52.422;13.486;2023-06-19T01:03:27;11.88;;;10.90;;
9304;SDS011;4690;52.422;13.486;2023-06-19T01:05:53;11.23;;;10.43;;
9304;SDS011;4690;52.422;13.486;2023-06-19T01:11:29;11.35;;;10.35;;
9304;SDS011;4690;52.422;13.486;2023-06-19T01:14:08;11.40;;;10.50;;
9304;SDS011;4690;52.422;13.486;2023-06-19T01:16:42;11.75;;;10.85;;
9304;SDS011;4690;52.422;13.486;2023-06-19T01:19:10;11.27;;;10.48;;
9304;SDS011;4690;52.422;13.486;2023-06-19T01:21:46;11.18;;;10.38;;
9304;SDS011;4690;52.422;13.486;2023-06-19T01:24:15;11.90;;;10.80;;
9304;SDS011;4690;52.422;13.486;2023-06-19T01:26:41;13.07;;;11.98;;
9304;SDS011;4690;52.422;13.486;2023-06-19T01:29:11;11.98;;;11.07;;
9304;SDS011;4690;52.422;13.486;2023-06-19T01:31:50;12.88;;;11.75;;
9304;SDS011;4690;52.422;13.486;2023-06-19T01:34:30;11.50;;;10.68;;
9304;SDS011;4690;52.422;13.486;2023-06-19T01:36:58;11.43;;;10.60;;
9304;SDS011;4690;52.422;13.486;2023-06-19T01:39:25;10.88;;;10.07;;
9304;SDS011;4690;52.422;13.486;2023-06-19T01:41:52;12.00;;;11.00;;
9304;SDS011;4690;52.422;13.486;2023-06-19T01:44:20;11.73;;;10.73;;
9304;SDS011;4690;52.422;13.486;2023-06-19T01:46:49;12.85;;;11.85;;
9304;SDS011;4690;52.422;13.486;2023-06-19T01:49:16;12.20;;;11.30;;
9304;SDS011;4690;52.422;13.486;2023-06-19T01:51:42;13.00;;;11.88;;
9304;SDS011;4690;52.422;13.486;2023-06-19T01:54:08;11.60;;;10.70;;
9304;SDS011;4690;52.422;13.486;2023-06-19T01:56:34;12.30;;;11.27;;
9304;SDS011;4690;52.422;13.486;2023-06-19T01:59:01;12.20;;;11.30;;
9304;SDS011;4690;52.422;13.486;2023-06-19T02:01:27;12.52;;;11.52;;
9304;SDS011;4690;52.422;13.486;2023-06-19T02:03:52;13.20;;;11.80;;
9304;SDS011;4690;52.422;13.486;2023-06-19T02:06:18;12.07;;;11.18;;
9304;SDS011;4690;52.422;13.486;2023-06-19T02:08:45;12.55;;;11.55;;
9304;SDS011;4690;52.422;13.486;2023-06-19T02:11:11;12.18;;;11.27;;
9304;SDS011;4690;52.422;13.486;2023-06-19T02:13:36;12.43;;;11.30;;
9304;SDS011;4690;52.422;13.486;2023-06-19T02:16:02;11.43;;;10.63;;
9304;SDS011;4690;52.422;13.486;2023-06-19T02:18:28;11.27;;;10.48;;
9304;SDS011;4690;52.422;13.486;2023-06-19T02:20:54;11.73;;;10.82;;
9304;SDS011;4690;52.422;13.486;2023-06-19T02:23:20;11.57;;;10.68;;
9304;SDS011;4690;52.422;13.486;2023-06-19T02:25:46;13.30;;;12.25;;
9304;SDS011;4690;52.422;13.486;2023-06-19T02:28:11;12.90;;;11.80;;
9304;SDS011;4690;52.422;13.486;2023-06-19T02:30:37;12.95;;;11.95;;
9304;SDS011;4690;52.422;13.486;2023-06-19T02:33:03;13.05;;;12.05;;
9304;SDS011;4690;52.422;13.486;2023-06-19T02:35:29;12.20;;;11.30;;
9304;SDS011;4690;52.422;13.486;2023-06-19T02:37:55;12.02;;;11.13;;
9304;SDS011;4690;52.422;13.486;2023-06-19T02:40:21;12.90;;;11.90;;
9304;SDS011;4690;52.422;13.486;2023-06-19T02:42:47;12.65;;;11.55;;
9304;SDS011;4690;52.422;13.486;2023-06-19T02:45:12;13.35;;;12.25;;
9304;SDS011;4690;52.422;13.486;2023-06-19T02:47:38;12.73;;;11.73;;
9304;SDS011;4690;52.422;13.486;2023-06-19T02:50:04;13.38;;;12.25;;
9304;SDS011;4690;52.422;13.486;2023-06-19T02:52:31;13.77;;;12.77;;
9304;SDS011;4690;52.422;13.486;2023-06-19T02:54:56;12.73;;;11.77;;
9304;SDS011;4690;52.422;13.486;2023-06-19T02:57:22;14.05;;;12.95;;
9304;SDS011;4690;52.422;13.486;2023-06-19T02:59:48;13.75;;;12.65;;
9304;SDS011;4690;52.422;13.486;2023-06-19T03:02:14;14.02;;;12.93;;
9304;SDS011;4690;52.422;13.486;2023-06-19T03:04:40;13.73;;;12.68;;
9304;SDS011;4690;52.422;13.486;2023-06-19T03:07:06;14.07;;;12.88;;
9304;SDS011;4690;52.422;13.486;2023-06-19T03:09:32;13.55;;;12.45;;
9304;SDS011;4690;52.422;13.486;2023-06-19T03:11:57;13.65;;;12.45;;
9304;SDS011;4690;52.422;13.486;2023-06-19T03:14:23;13.70;;;12.70;;
9304;SDS011;4690;52.422;13.486;2023-06-19T03:16:49;13.95;;;12.85;;
9304;SDS011;4690;52.422;13.486;2023-06-19T03:19:14;14.05;;;12.95;;
9304;SDS011;4690;52.422;13.486;2023-06-19T03:21:40;14.75;;;13.55;;
9304;SDS011;4690;52.422;13.486;2023-06-19T03:24:07;15.40;;;13.90;;
9304;SDS011;4690;52.422;13.486;2023-06-19T03:26:32;14.68;;;13.48;;
9304;SDS011;4690;52.422;13.486;2023-06-19T03:28:58;15.15;;;13.82;;
9304;SDS011;4690;52.422;13.486;2023-06-19T03:31:24;14.00;;;12.90;;
9304;SDS011;4690;52.422;13.486;2023-06-19T03:33:50;15.75;;;14.35;;
9304;SDS011;4690;52.422;13.486;2023-06-19T03:36:16;15.70;;;14.30;;
9304;SDS011;4690;52.422;13.486;2023-06-19T03:38:41;14.02;;;12.88;;
9304;SDS011;4690;52.422;13.486;2023-06-19T03:41:07;15.52;;;14.00;;
9304;SDS011;4690;52.422;13.486;2023-06-19T03:43:33;15.05;;;13.73;;
9304;SDS011;4690;52.422;13.486;2023-06-19T03:45:59;15.20;;;13.93;;
9304;SDS011;4690;52.422;13.486;2023-06-19T03:48:24;15.18;;;13.77;;
9304;SDS011;4690;52.422;13.486;2023-06-19T03:50:50;13.95;;;12.85;;
9304;SDS011;4690;52.422;13.486;2023-06-19T03:53:16;14.52;;;13.32;;
9304;SDS011;4690;52.422;13.486;2023-06-19T03:55:42;14.60;;;13.40;;
9304;SDS011;4690;52.422;13.486;2023-06-19T03:58:09;15.07;;;13.93;;
9304;SDS011;4690;52.422;13.486;2023-06-19T04:00:35;15.27;;;14.00;;
9304;SDS011;4690;52.422;13.486;2023-06-19T04:03:00;14.65;;;13.50;;
9304;SDS011;4690;52.422;13.486;2023-06-19T04:05:26;14.85;;;13.65;;
9304;SDS011;4690;52.422;13.486;2023-06-19T04:07:52;14.20;;;13.10;;
9304;SDS011;4690;52.422;13.486;2023-06-19T04:10:18;13.50;;;12.50;;
9304;SDS011;4690;52.422;13.486;2023-06-19T04:12:44;15.45;;;14.25;;
9304;SDS011;4690;52.422;13.486;2023-06-19T04:15:10;15.75;;;14.35;;
9304;SDS011;4690;52.422;13.486;2023-06-19T04:17:36;16.38;;;15.00;;
9304;SDS011;4690;52.422;13.486;2023-06-19T04:20:02;16.13;;;14.82;;
9304;SDS011;4690;52.422;13.486;2023-06-19T04:22:36;15.10;;;13.90;;
9304;SDS011;4690;52.422;13.486;2023-06-19T04:25:09;14.15;;;12.95;;
9304;SDS011;4690;52.422;13.486;2023-06-19T04:27:35;14.32;;;13.23;;
9304;SDS011;4690;52.422;13.486;2023-06-19T04:30:02;16.45;;;15.00;;
9304;SDS011;4690;52.422;13.486;2023-06-19T04:32:29;16.30;;;14.82;;
9304;SDS011;4690;52.422;13.486;2023-06-19T04:34:55;15.20;;;14.00;;
9304;SDS011;4690;52.422;13.486;2023-06-19T04:37:22;15.00;;;13.80;;
9304;SDS011;4690;52.422;13.486;2023-06-19T04:39:48;15.30;;;14.07;;
9304;SDS011;4690;52.422;13.486;2023-06-19T04:42:17;16.02;;;14.38;;
9304;SDS011;4690;52.422;13.486;2023-06-19T04:44:44;14.90;;;13.73;;
9304;SDS011;4690;52.422;13.486;2023-06-19T04:47:11;15.48;;;14.13;;
9304;SDS011;4690;52.422;13.486;2023-06-19T04:49:37;13.48;;;12.48;;
9304;SDS011;4690;52.422;13.486;2023-06-19T04:52:03;13.35;;;12.35;;
9304;SDS011;4690;52.422;13.486;2023-06-19T04:54:29;14.02;;;12.93;;
9304;SDS011;4690;52.422;13.486;2023-06-19T04:56:57;14.52;;;13.43;;
9304;SDS011;4690;52.422;13.486;2023-06-19T04:59:23;14.15;;;13.05;;
9304;SDS011;4690;52.422;13.486;2023-06-19T05:01:49;16.02;;;14.73;;
9304;SDS011;4690;52.422;13.486;2023-06-19T05:04:18;14.23;;;13.13;;
9304;SDS011;4690;52.422;13.486;2023-06-19T05:06:45;15.13;;;13.85;;
9304;SDS011;4690;52.422;13.486;2023-06-19T05:09:11;14.05;;;12.95;;
9304;SDS011;4690;52.422;13.486;2023-06-19T05:11:37;14.40;;;13.20;;
9304;SDS011;4690;52.422;13.486;2023-06-19T05:14:02;16.67;;;15.38;;
9304;SDS011;4690;52.422;13.486;2023-06-19T05:16:28;15.05;;;13.85;;
9304;SDS011;4690;52.422;13.486;2023-06-19T05:18:54;17.92;;;16.17;;
9304;SDS011;4690;52.422;13.486;2023-06-19T05:21:20;17.10;;;15.63;;
9304;SDS011;4690;52.422;13.486;2023-06-19T05:23:46;18.00;;;16.30;;
9304;SDS011;4690;52.422;13.486;2023-06-19T05:26:19;15.10;;;13.82;;
9304;SDS011;4690;52.422;13.486;2023-06-19T05:28:45;16.23;;;14.77;;
9304;SDS011;4690;52.422;13.486;2023-06-19T05:31:12;16.30;;;14.90;;
9304;SDS011;4690;52.422;13.486;2023-06-19T05:33:38;14.63;;;13.38;;
9304;SDS011;4690;52.422;13.486;2023-06-19T05:36:05;14.25;;;13.15;;
9304;SDS011;4690;52.422;13.486;2023-06-19T05:38:31;15.45;;;14.25;;
9304;SDS011;4690;52.422;13.486;2023-06-19T05:40:57;16.05;;;14.77;;
9304;SDS011;4690;52.422;13.486;2023-06-19T05:43:23;17.00;;;15.43;;
9304;SDS011;4690;52.422;13.486;2023-06-19T05:45:49;15.45;;;14.25;;
9304;SDS011;4690;52.422;13.486;2023-06-19T05:48:16;16.27;;;15.00;;
9304;SDS011;4690;52.422;13.486;2023-06-19T05:50:42;15.52;;;14.23;;
9304;SDS011;4690;52.422;13.486;2023-06-19T05:53:07;15.57;;;14.25;;
9304;SDS011;4690;52.422;13.486;2023-06-19T05:55:33;15.88;;;14.57;;
9304;SDS011;4690;52.422;13.486;2023-06-19T05:57:59;16.55;;;15.25;;
9304;SDS011;4690;52.422;13.486;2023-06-19T06:00:25;16.25;;;14.90;;
9304;SDS011;4690;52.422;13.486;2023-06-19T06:02:52;16.75;;;15.23;;
9304;SDS011;4690;52.422;13.486;2023-06-19T06:05:18;15.90;;;14.50;;
9304;SDS011;4690;52.422;13.486;2023-06-19T06:07:45;16.60;;;15.30;;
9304;SDS011;4690;52.422;13.486;2023-06-19T06:10:11;16.95;;;15.55;;
9304;SDS011;4690;52.422;13.486;2023-06-19T06:12:37;17.50;;;15.73;;
9304;SDS011;4690;52.422;13.486;2023-06-19T06:15:06;16.90;;;15.40;;
9304;SDS011;4690;52.422;13.486;2023-06-19T06:17:32;16.65;;;15.25;;
9304;SDS011;4690;52.422;13.486;2023-06-19T06:19:58;15.57;;;14.38;;
9304;SDS011;4690;52.422;13.486;2023-06-19T06:22:24;16.83;;;15.25;;
9304;SDS011;4690;52.422;13.486;2023-06-19T06:24:49;16.65;;;15.30;;
9304;SDS011;4690;52.422;13.486;2023-06-19T06:27:15;16.50;;;15.10;;
9304;SDS011;4690;52.422;13.486;2023-06-19T06:29:41;16.60;;;15.20;;
9304;SDS011;4690;52.422;13.486;2023-06-19T06:32:07;17.08;;;15.43;;
9304;SDS011;4690;52.422;13.486;2023-06-19T06:34:34;16.58;;;15.13;;
9304;SDS011;4690;52.422;13.486;2023-06-19T06:37:00;16.08;;;14.77;;
9304;SDS011;4690;52.422;13.486;2023-06-19T06:39:26;14.82;;;13.73;;
9304;SDS011;4690;52.422;13.486;2023-06-19T06:41:52;15.52;;;14.13;;
9304;SDS011;4690;52.422;13.486;2023-06-19T06:44:18;15.85;;;14.73;;
9304;SDS011;4690;52.422;13.486;2023-06-19T06:46:44;15.07;;;13.65;;
9304;SDS011;4690;52.422;13.486;2023-06-19T06:49:10;14.48;;;13.30;;
9304;SDS011;4690;52.422;13.486;2023-06-19T06:51:37;16.88;;;15.35;;
9304;SDS011;4690;52.422;13.486;2023-06-19T06:54:03;15.52;;;14.32;;
9304;SDS011;4690;52.422;13.486;2023-06-19T06:56:30;15.50;;;14.30;;
9304;SDS011;4690;52.422;13.486;2023-06-19T06:58:56;15.48;;;14.23;;
9304;SDS011;4690;52.422;13.486;2023-06-19T07:01:21;16.20;;;14.80;;
9304;SDS011;4690;52.422;13.486;2023-06-19T07:03:47;15.65;;;14.30;;
9304;SDS011;4690;52.422;13.486;2023-06-19T07:06:13;15.50;;;14.13;;
9304;SDS011;4690;52.422;13.486;2023-06-19T07:08:38;16.38;;;15.05;;
9304;SDS011;4690;52.422;13.486;2023-06-19T07:11:06;14.98;;;13.88;;
9304;SDS011;4690;52.422;13.486;2023-06-19T07:13:32;15.43;;;14.23;;
9304;SDS011;4690;52.422;13.486;2023-06-19T07:15:58;14.93;;;13.63;;
9304;SDS011;4690;52.422;13.486;2023-06-19T07:18:26;15.60;;;14.15;;
9304;SDS011;4690;52.422;13.486;2023-06-19T07:20:52;15.73;;;14.40;;
9304;SDS011;4690;52.422;13.486;2023-06-19T07:23:18;15.20;;;14.00;;
9304;SDS011;4690;52.422;13.486;2023-06-19T07:25:45;15.88;;;14.55;;
9304;SDS011;4690;52.422;13.486;2023-06-19T07:28:12;14.68;;;13.57;;
9304;SDS011;4690;52.422;13.486;2023-06-19T07:30:38;14.40;;;13.30;;
9304;SDS011;4690;52.422;13.486;2023-06-19T07:33:04;15.60;;;14.30;;
9304;SDS011;4690;52.422;13.486;2023-06-19T07:35:30;15.50;;;14.07;;
9304;SDS011;4690;52.422;13.486;2023-06-19T07:37:56;14.23;;;13.13;;
9304;SDS011;4690;52.422;13.486;2023-06-19T07:40:21;15.48;;;14.18;;
9304;SDS011;4690;52.422;13.486;2023-06-19T07:42:47;14.95;;;13.73;;
9304;SDS011;4690;52.422;13.486;2023-06-19T07:45:13;14.27;;;13.07;;
9304;SDS011;4690;52.422;13.486;2023-06-19T07:47:39;15.15;;;13.75;;
9304;SDS011;4690;52.422;13.486;2023-06-19T07:50:05;15.07;;;13.77;;
9304;SDS011;4690;52.422;13.486;2023-06-19T07:52:31;14.88;;;13.45;;
9304;SDS011;4690;52.422;13.486;2023-06-19T07:54:57;14.70;;;13.35;;
9304;SDS011;4690;52.422;13.486;2023-06-19T07:57:24;14.10;;;12.77;;
9304;SDS011;4690;52.422;13.486;2023-06-19T07:59:51;14.52;;;13.25;;
9304;SDS011;4690;52.422;13.486;2023-06-19T08:02:18;14.10;;;12.90;;
9304;SDS011;4690;52.422;13.486;2023-06-19T08:04:45;13.35;;;12.25;;
9304;SDS011;4690;52.422;13.486;2023-06-19T08:07:13;15.45;;;13.93;;
9304;SDS011;4690;52.422;13.486;2023-06-19T08:09:39;14.32;;;13.13;;
9304;SDS011;4690;52.422;13.486;2023-06-19T08:12:05;15.75;;;14.50;;
9304;SDS011;4690;52.422;13.486;2023-06-19T08:14:31;15.60;;;14.20;;
9304;SDS011;4690;52.422;13.486;2023-06-19T08:16:57;14.43;;;13.18;;
9304;SDS011;4690;52.422;13.486;2023-06-19T08:19:22;14.75;;;13.55;;
9304;SDS011;4690;52.422;13.486;2023-06-19T08:21:48;14.75;;;13.55;;
9304;SDS011;4690;52.422;13.486;2023-06-19T08:24:14;14.57;;;13.35;;
9304;SDS011;4690;52.422;13.486;2023-06-19T08:26:40;15.45;;;14.20;;
9304;SDS011;4690;52.422;13.486;2023-06-19T08:29:05;14.73;;;13.43;;
9304;SDS011;4690;52.422;13.486;2023-06-19T08:31:31;14.23;;;12.93;;
9304;SDS011;4690;52.422;13.486;2023-06-19T08:33:59;13.40;;;12.23;;
9304;SDS011;4690;52.422;13.486;2023-06-19T08:36:25;13.68;;;12.48;;
9304;SDS011;4690;52.422;13.486;2023-06-19T08:38:51;12.35;;;11.27;;
9304;SDS011;4690;52.422;13.486;2023-06-19T08:41:18;13.63;;;12.57;;
9304;SDS011;4690;52.422;13.486;2023-06-19T08:43:44;12.88;;;11.88;;
9304;SDS011;4690;52.422;13.486;2023-06-19T08:46:13;13.30;;;12.23;;
9304;SDS011;4690;52.422;13.486;2023-06-19T08:48:42;12.70;;;11.60;;
9304;SDS011;4690;52.422;13.486;2023-06-19T08:51:09;12.60;;;11.38;;
9304;SDS011;4690;52.422;13.486;2023-06-19T08:53:59;13.38;;;12.38;;
9304;SDS011;4690;52.422;13.486;2023-06-19T08:56:28;13.63;;;12.45;;
9304;SDS011;4690;52.422;13.486;2023-06-19T08:59:07;13.43;;;12.32;;
9304;SDS011;4690;52.422;13.486;2023-06-19T09:01:37;13.10;;;12.00;;
9304;SDS011;4690;52.422;13.486;2023-06-19T09:04:08;14.10;;;13.00;;
9304;SDS011;4690;52.422;13.486;2023-06-19T09:06:44;13.45;;;12.35;;
9304;SDS011;4690;52.422;13.486;2023-06-19T09:09:19;13.88;;;12.50;;
9304;SDS011;4690;52.422;13.486;2023-06-19T09:12:06;14.07;;;12.90;;
9304;SDS011;4690;52.422;13.486;2023-06-19T09:14:37;12.82;;;11.70;;
9304;SDS011;4690;52.422;13.486;2023-06-19T09:17:11;13.57;;;12.45;;
9304;SDS011;4690;52.422;13.486;2023-06-19T09:19:49;14.77;;;13.30;;
9304;SDS011;4690;52.422;13.486;2023-06-19T09:22:21;14.55;;;13.13;;
9304;SDS011;4690;52.422;13.486;2023-06-19T09:24:48;13.82;;;12.68;;
9304;SDS011;4690;52.422;13.486;2023-06-19T09:27:15;13.52;;;12.43;;
9304;SDS011;4690;52.422;13.486;2023-06-19T09:29:45;13.88;;;12.60;;
9304;SDS011;4690;52.422;13.486;2023-06-19T09:34:44;14.30;;;13.20;;
9304;SDS011;4690;52.422;13.486;2023-06-19T09:37:11;13.45;;;12.38;;
9304;SDS011;4690;52.422;13.486;2023-06-19T09:39:38;13.32;;;12.32;;
9304;SDS011;4690;52.422;13.486;2023-06-19T09:42:08;13.65;;;12.38;;
9304;SDS011;4690;52.422;13.486;2023-06-19T09:44:44;12.10;;;11.20;;
9304;SDS011;4690;52.422;13.486;2023-06-19T09:47:17;12.50;;;11.50;;
9304;SDS011;4690;52.422;13.486;2023-06-19T09:49:48;12.32;;;11.32;;
9304;SDS011;4690;52.422;13.486;2023-06-19T09:52:24;12.75;;;11.75;;
9304;SDS011;4690;52.422;13.486;2023-06-19T09:54:51;13.18;;;12.13;;
9304;SDS011;4690;52.422;13.486;2023-06-19T09:57:18;13.45;;;12.25;;
9304;SDS011;4690;52.422;13.486;2023-06-19T09:59:50;14.32;;;12.65;;
9304;SDS011;4690;52.422;13.486;2023-06-19T10:02:19;13.45;;;12.25;;
9304;SDS011;4690;52.422;13.486;2023-06-19T10:04:53;12.35;;;11.35;;
9304;SDS011;4690;52.422;13.486;2023-06-19T10:07:21;13.88;;;12.68;;
9304;SDS011;4690;52.422;13.486;2023-06-19T10:10:00;13.45;;;12.35;;
9304;SDS011;4690;52.422;13.486;2023-06-19T10:12:39;13.52;;;12.32;;
9304;SDS011;4690;52.422;13.486;2023-06-19T10:17:59;12.65;;;11.75;;
9304;SDS011;4690;52.422;13.486;2023-06-19T10:20:30;13.98;;;12.82;;
9304;SDS011;4690;52.422;13.486;2023-06-19T10:23:05;13.60;;;12.40;;
9304;SDS011;4690;52.422;13.486;2023-06-19T10:25:32;13.65;;;12.57;;
9304;SDS011;4690;52.422;13.486;2023-06-19T10:28:01;13.65;;;12.45;;
9304;SDS011;4690;52.422;13.486;2023-06-19T10:30:30;14.52;;;13.40;;
9304;SDS011;4690;52.422;13.486;2023-06-19T10:32:57;14.57;;;13.38;;
9304;SDS011;4690;52.422;13.486;2023-06-19T10:35:22;13.73;;;12.35;;
9304;SDS011;4690;52.422;13.486;2023-06-19T10:37:49;12.52;;;11.63;;
9304;SDS011;4690;52.422;13.486;2023-06-19T10:40:16;12.68;;;11.57;;
9304;SDS011;4690;52.422;13.486;2023-06-19T10:42:43;12.27;;;11.27;;
9304;SDS011;4690;52.422;13.486;2023-06-19T10:45:10;14.10;;;12.60;;
9304;SDS011;4690;52.422;13.486;2023-06-19T10:47:39;13.27;;;11.98;;
9304;SDS011;4690;52.422;13.486;2023-06-19T10:50:14;13.75;;;12.55;;
9304;SDS011;4690;52.422;13.486;2023-06-19T10:52:41;14.05;;;12.90;;
9304;SDS011;4690;52.422;13.486;2023-06-19T10:55:09;13.90;;;12.70;;
9304;SDS011;4690;52.422;13.486;2023-06-19T10:57:37;13.88;;;12.77;;
9304;SDS011;4690;52.422;13.486;2023-06-19T11:00:04;13.20;;;12.20;;
9304;SDS011;4690;52.422;13.486;2023-06-19T11:02:40;13.45;;;12.25;;
9304;SDS011;4690;52.422;13.486;2023-06-19T11:05:08;13.05;;;11.95;;
9304;SDS011;4690;52.422;13.486;2023-06-19T11:07:36;14.07;;;12.38;;
9304;SDS011;4690;52.422;13.486;2023-06-19T11:10:03;13.15;;;12.15;;
9304;SDS011;4690;52.422;13.486;2023-06-19T11:12:30;12.73;;;11.73;;
9304;SDS011;4690;52.422;13.486;2023-06-19T11:15:04;13.10;;;11.93;;
9304;SDS011;4690;52.422;13.486;2023-06-19T11:17:30;13.55;;;11.88;;
9304;SDS011;4690;52.422;13.486;2023-06-19T11:19:57;11.88;;;10.93;;
9304;SDS011;4690;52.422;13.486;2023-06-19T11:22:38;12.20;;;11.00;;
9304;SDS011;4690;52.422;13.486;2023-06-19T11:25:06;12.20;;;11.10;;
9304;SDS011;4690;52.422;13.486;2023-06-19T11:27:36;11.73;;;10.63;;
9304;SDS011;4690;52.422;13.486;2023-06-19T11:30:04;12.35;;;11.15;;
9304;SDS011;4690;52.422;13.486;2023-06-19T11:32:36;11.00;;;10.02;;
9304;SDS011;4690;52.422;13.486;2023-06-19T11:35:09;11.68;;;10.68;;
9304;SDS011;4690;52.422;13.486;2023-06-19T11:37:40;11.13;;;10.20;;
9304;SDS011;4690;52.422;13.486;2023-06-19T11:40:07;10.95;;;10.15;;
9304;SDS011;4690;52.422;13.486;2023-06-19T11:42:48;11.57;;;10.57;;
9304;SDS011;4690;52.422;13.486;2023-06-19T11:45:18;12.75;;;11.65;;
9304;SDS011;4690;52.422;13.486;2023-06-19T11:47:46;11.52;;;10.63;;
9304;SDS011;4690;52.422;13.486;2023-06-19T11:50:13;12.57;;;11.45;;
9304;SDS011;4690;52.422;13.486;2023-06-19T11:52:41;11.98;;;10.93;;
9304;SDS011;4690;52.422;13.486;2023-06-19T11:55:12;12.07;;;11.05;;
9304;SDS011;4690;52.422;13.486;2023-06-19T11:57:40;11.13;;;10.25;;
9304;SDS011;4690;52.422;13.486;2023-06-19T12:00:12;12.35;;;11.43;;
9304;SDS011;4690;52.422;13.486;2023-06-19T12:02:43;11.93;;;10.93;;
9304;SDS011;4690;52.422;13.486;2023-06-19T12:05:11;11.77;;;10.82;;
9304;SDS011;4690;52.422;13.486;2023-06-19T12:07:37;12.63;;;11.63;;
9304;SDS011;4690;52.422;13.486;2023-06-19T12:10:03;12.25;;;11.30;;
9304;SDS011;4690;52.422;13.486;2023-06-19T12:12:34;12.95;;;11.73;;
9304;SDS011;4690;52.422;13.486;2023-06-19T12:15:03;12.23;;;11.23;;
9304;SDS011;4690;52.422;13.486;2023-06-19T12:17:30;13.07;;;11.90;;
9304;SDS011;4690;52.422;13.486;2023-06-19T12:19:56;13.00;;;11.90;;
9304;SDS011;4690;52.422;13.486;2023-06-19T12:22:22;13.45;;;12.20;;
9304;SDS011;4690;52.422;13.486;2023-06-19T12:24:48;13.35;;;11.85;;
9304;SDS011;4690;52.422;13.486;2023-06-19T12:27:13;12.75;;;11.65;;
9304;SDS011;4690;52.422;13.486;2023-06-19T12:29:39;12.55;;;11.65;;
9304;SDS011;4690;52.422;13.486;2023-06-19T12:32:05;12.15;;;11.05;;
9304;SDS011;4690;52.422;13.486;2023-06-19T12:34:31;12.45;;;11.45;;
9304;SDS011;4690;52.422;13.486;2023-06-19T12:36:57;12.40;;;11.38;;
9304;SDS011;4690;52.422;13.486;2023-06-19T12:39:23;12.88;;;11.60;;
9304;SDS011;4690;52.422;13.486;2023-06-19T12:41:49;12.10;;;11.02;;
9304;SDS011;4690;52.422;13.486;2023-06-19T12:44:16;11.98;;;11.07;;
9304;SDS011;4690;52.422;13.486;2023-06-19T12:46:42;12.90;;;11.75;;
9304;SDS011;4690;52.422;13.486;2023-06-19T12:49:08;11.75;;;10.88;;
9304;SDS011;4690;52.422;13.486;2023-06-19T12:51:33;13.23;;;11.95;;
9304;SDS011;4690;52.422;13.486;2023-06-19T12:53:59;12.60;;;11.60;;
9304;SDS011;4690;52.422;13.486;2023-06-19T12:56:25;12.65;;;11.45;;
9304;SDS011;4690;52.422;13.486;2023-06-19T12:58:51;12.60;;;11.60;;
9304;SDS011;4690;52.422;13.486;2023-06-19T13:01:17;13.50;;;12.27;;
9304;SDS011;4690;52.422;13.486;2023-06-19T13:03:42;12.98;;;11.88;;
9304;SDS011;4690;52.422;13.486;2023-06-19T13:06:08;14.50;;;13.02;;
9304;SDS011;4690;52.422;13.486;2023-06-19T13:08:34;13.52;;;12.32;;
9304;SDS011;4690;52.422;13.486;2023-06-19T13:10:59;13.65;;;12.55;;
9304;SDS011;4690;52.422;13.486;2023-06-19T13:13:25;13.90;;;12.45;;
9304;SDS011;4690;52.422;13.486;2023-06-19T13:15:51;12.85;;;11.85;;
9304;SDS011;4690;52.422;13.486;2023-06-19T13:18:17;13.40;;;12.27;;
9304;SDS011;4690;52.422;13.486;2023-06-19T13:20:44;14.50;;;12.90;;
9304;SDS011;4690;52.422;13.486;2023-06-19T13:23:13;13.65;;;12.35;;
9304;SDS011;4690;52.422;13.486;2023-06-19T13:25:39;14.00;;;12.80;;
9304;SDS011;4690;52.422;13.486;2023-06-19T13:28:05;14.85;;;13.55;;
9304;SDS011;4690;52.422;13.486;2023-06-19T13:30:31;13.82;;;12.57;;
9304;SDS011;4690;52.422;13.486;2023-06-19T13:32:57;13.70;;;12.45;;
9304;SDS011;4690;52.422;13.486;2023-06-19T13:35:22;13.68;;;12.32;;
9304;SDS011;4690;52.422;13.486;2023-06-19T13:37:48;14.00;;;12.90;;
9304;SDS011;4690;52.422;13.486;2023-06-19T13:40:14;14.63;;;13.20;;
9304;SDS011;4690;52.422;13.486;2023-06-19T13:42:40;14.57;;;13.27;;
9304;SDS011;4690;52.422;13.486;2023-06-19T13:45:06;14.60;;;13.20;;
9304;SDS011;4690;52.422;13.486;2023-06-19T13:47:32;13.90;;;12.68;;
9304;SDS011;4690;52.422;13.486;2023-06-19T13:49:58;14.32;;;13.05;;
9304;SDS011;4690;52.422;13.486;2023-06-19T13:52:23;14.43;;;13.23;;
9304;SDS011;4690;52.422;13.486;2023-06-19T13:54:49;13.70;;;12.52;;
9304;SDS011;4690;52.422;13.486;2023-06-19T13:57:15;13.88;;;12.77;;
9304;SDS011;4690;52.422;13.486;2023-06-19T13:59:41;14.88;;;13.50;;
9304;SDS011;4690;52.422;13.486;2023-06-19T14:02:08;14.50;;;12.48;;
9304;SDS011;4690;52.422;13.486;2023-06-19T14:04:35;14.32;;;12.95;;
9304;SDS011;4690;52.422;13.486;2023-06-19T14:07:01;14.40;;;13.02;;
9304;SDS011;4690;52.422;13.486;2023-06-19T14:09:27;13.27;;;12.18;;
9304;SDS011;4690;52.422;13.486;2023-06-19T14:11:52;13.65;;;12.35;;
9304;SDS011;4690;52.422;13.486;2023-06-19T14:14:18;12.73;;;11.82;;
9304;SDS011;4690;52.422;13.486;2023-06-19T14:16:44;13.18;;;12.10;;
9304;SDS011;4690;52.422;13.486;2023-06-19T14:19:10;12.55;;;11.63;;
9304;SDS011;4690;52.422;13.486;2023-06-19T14:21:36;12.85;;;11.90;;
9304;SDS011;4690;52.422;13.486;2023-06-19T14:24:01;13.38;;;12.15;;
9304;SDS011;4690;52.422;13.486;2023-06-19T14:26:27;13.43;;;12.23;;
9304;SDS011;4690;52.422;13.486;2023-06-19T14:28:53;13.80;;;12.63;;
9304;SDS011;4690;52.422;13.486;2023-06-19T14:31:22;13.52;;;12.25;;
9304;SDS011;4690;52.422;13.486;2023-06-19T14:33:51;12.77;;;11.68;;
9304;SDS011;4690;52.422;13.486;2023-06-19T14:36:16;12.25;;;11.35;;
9304;SDS011;4690;52.422;13.486;2023-06-19T14:38:42;13.02;;;11.82;;
9304;SDS011;4690;52.422;13.486;2023-06-19T14:41:08;12.80;;;11.73;;
9304;SDS011;4690;52.422;13.486;2023-06-19T14:43:34;11.90;;;10.85;;
9304;SDS011;4690;52.422;13.486;2023-06-19T14:46:00;12.20;;;11.20;;
9304;SDS011;4690;52.422;13.486;2023-06-19T14:48:29;12.85;;;11.75;;